sensor_id;sensor_type;location;lat;lon;timestamp;pressure;altitude;pressure_sealevel;temperature;humidity
51289;BME280;37372;52.294;5.152;2022-10-16T00:01:09;100935.09;;;11.96;100.00
51289;BME280;37372;52.294;5.152;2022-10-16T00:03:36;100938.31;;;11.94;100.00
51289;BME280;37372;52.294;5.152;2022-10-16T00:06:03;100939.09;;;11.95;100.00
51289;BME280;37372;52.294;5.152;2022-10-16T00:08:29;100930.28;;;11.93;100.00
51289;BME280;37372;52.294;5.152;2022-10-16T00:13:31;100932.28;;;11.96;100.00
51289;BME280;37372;52.294;5.152;2022-10-16T00:15:57;100919.88;;;11.93;100.00
51289;BME280;37372;52.294;5.152;2022-10-16T00:18:23;100919.41;;;11.95;100.00
51289;BME280;37372;52.294;5.152;2022-10-16T00:20:49;100927.81;;;11.99;100.00
51289;BME280;37372;52.294;5.152;2022-10-16T00:23:14;100917.75;;;12.01;100.00
51289;BME280;37372;52.294;5.152;2022-10-16T00:25:39;100925.75;;;12.03;100.00
51289;BME280;37372;52.294;5.152;2022-10-16T00:28:05;100918.09;;;12.03;100.00
51289;BME280;37372;52.294;5.152;2022-10-16T00:30:30;100911.69;;;12.03;100.00
51289;BME280;37372;52.294;5.152;2022-10-16T00:32:56;100920.81;;;12.10;100.00
51289;BME280;37372;52.294;5.152;2022-10-16T00:35:21;100924.75;;;12.16;100.00
51289;BME280;37372;52.294;5.152;2022-10-16T00:37:46;100941.97;;;12.19;100.00
51289;BME280;37372;52.294;5.152;2022-10-16T00:40:12;100932.97;;;12.31;100.00
51289;BME280;37372;52.294;5.152;2022-10-16T00:42:37;100922.63;;;12.24;100.00
51289;BME280;37372;52.294;5.152;2022-10-16T00:45:03;100923.78;;;12.27;100.00
51289;BME280;37372;52.294;5.152;2022-10-16T00:47:37;100919.38;;;12.26;100.00
51289;BME280;37372;52.294;5.152;2022-10-16T00:50:09;100926.59;;;12.27;100.00
51289;BME280;37372;52.294;5.152;2022-10-16T00:52:43;100925.38;;;12.28;100.00
51289;BME280;37372;52.294;5.152;2022-10-16T00:55:09;100921.84;;;12.24;100.00
51289;BME280;37372;52.294;5.152;2022-10-16T00:57:35;100925.84;;;12.23;100.00
51289;BME280;37372;52.294;5.152;2022-10-16T01:00:03;100923.72;;;12.30;100.00
51289;BME280;37372;52.294;5.152;2022-10-16T01:02:29;100932.84;;;12.38;100.00
51289;BME280;37372;52.294;5.152;2022-10-16T01:04:54;100924.91;;;12.33;100.00
51289;BME280;37372;52.294;5.152;2022-10-16T01:07:30;100920.13;;;12.30;100.00
51289;BME280;37372;52.294;5.152;2022-10-16T01:12:59;100916.16;;;12.27;100.00
51289;BME280;37372;52.294;5.152;2022-10-16T01:15:47;100914.13;;;12.28;100.00
51289;BME280;37372;52.294;5.152;2022-10-16T01:18:22;100912.91;;;12.29;100.00
51289;BME280;37372;52.294;5.152;2022-10-16T01:20:54;100904.41;;;12.32;100.00
51289;BME280;37372;52.294;5.152;2022-10-16T01:25:59;100916.91;;;12.31;100.00
51289;BME280;37372;52.294;5.152;2022-10-16T01:28:35;100914.03;;;12.35;100.00
51289;BME280;37372;52.294;5.152;2022-10-16T01:31:02;100912.44;;;12.34;100.00
51289;BME280;37372;52.294;5.152;2022-10-16T01:33:32;100915.19;;;12.37;100.00
51289;BME280;37372;52.294;5.152;2022-10-16T01:36:05;100927.66;;;12.36;100.00
51289;BME280;37372;52.294;5.152;2022-10-16T01:38:35;100930.53;;;12.33;100.00
51289;BME280;37372;52.294;5.152;2022-10-16T01:41:09;100926.50;;;12.34;100.00
51289;BME280;37372;52.294;5.152;2022-10-16T01:43:39;100924.09;;;12.32;100.00
51289;BME280;37372;52.294;5.152;2022-10-16T01:46:07;100908.88;;;12.30;100.00
51289;BME280;37372;52.294;5.152;2022-10-16T01:48:35;100918.88;;;12.31;100.00
51289;BME280;37372;52.294;5.152;2022-10-16T01:51:05;100917.69;;;12.32;100.00
51289;BME280;37372;52.294;5.152;2022-10-16T01:53:32;100922.63;;;12.24;100.00
51289;BME280;37372;52.294;5.152;2022-10-16T01:55:58;100919.84;;;12.21;100.00
51289;BME280;37372;52.294;5.152;2022-10-16T01:58:25;100926.34;;;12.18;100.00
51289;BME280;37372;52.294;5.152;2022-10-16T02:00:52;100927.56;;;12.16;100.00
51289;BME280;37372;52.294;5.152;2022-10-16T02:03:19;100928.38;;;12.13;100.00
51289;BME280;37372;52.294;5.152;2022-10-16T02:05:49;100925.22;;;12.11;100.00
51289;BME280;37372;52.294;5.152;2022-10-16T02:08:15;100927.66;;;12.09;100.00
51289;BME280;37372;52.294;5.152;2022-10-16T02:10:41;100919.31;;;12.02;100.00
51289;BME280;37372;52.294;5.152;2022-10-16T02:13:10;100922.63;;;11.97;100.00
51289;BME280;37372;52.294;5.152;2022-10-16T02:15:37;100921.91;;;11.89;100.00
51289;BME280;37372;52.294;5.152;2022-10-16T02:18:04;100934.00;;;11.83;100.00
51289;BME280;37372;52.294;5.152;2022-10-16T02:20:36;100938.13;;;11.74;100.00
51289;BME280;37372;52.294;5.152;2022-10-16T02:23:03;100940.56;;;11.72;100.00
51289;BME280;37372;52.294;5.152;2022-10-16T02:25:35;100948.22;;;11.72;100.00
51289;BME280;37372;52.294;5.152;2022-10-16T02:28:06;100949.00;;;11.72;100.00
51289;BME280;37372;52.294;5.152;2022-10-16T02:30:37;100946.25;;;11.69;100.00
51289;BME280;37372;52.294;5.152;2022-10-16T02:33:07;100955.84;;;11.71;100.00
51289;BME280;37372;52.294;5.152;2022-10-16T02:35:33;100950.63;;;11.70;100.00
51289;BME280;37372;52.294;5.152;2022-10-16T02:38:00;100953.88;;;11.68;100.00
51289;BME280;37372;52.294;5.152;2022-10-16T02:40:26;100957.88;;;11.67;100.00
51289;BME280;37372;52.294;5.152;2022-10-16T02:42:53;100959.53;;;11.65;100.00
51289;BME280;37372;52.294;5.152;2022-10-16T02:45:20;100953.97;;;11.61;100.00
51289;BME280;37372;52.294;5.152;2022-10-16T02:47:46;100958.75;;;11.64;100.00
51289;BME280;37372;52.294;5.152;2022-10-16T02:50:11;100966.31;;;11.67;100.00
51289;BME280;37372;52.294;5.152;2022-10-16T02:52:37;100961.53;;;11.68;100.00
51289;BME280;37372;52.294;5.152;2022-10-16T02:55:03;100961.84;;;11.73;100.00
51289;BME280;37372;52.294;5.152;2022-10-16T02:57:28;100967.47;;;11.73;100.00
51289;BME280;37372;52.294;5.152;2022-10-16T02:59:53;100962.69;;;11.70;100.00
51289;BME280;37372;52.294;5.152;2022-10-16T03:02:19;100963.50;;;11.67;100.00
51289;BME280;37372;52.294;5.152;2022-10-16T03:04:44;100970.34;;;11.66;100.00
51289;BME280;37372;52.294;5.152;2022-10-16T03:07:10;100953.91;;;11.65;100.00
51289;BME280;37372;52.294;5.152;2022-10-16T03:09:35;100957.88;;;11.67;100.00
51289;BME280;37372;52.294;5.152;2022-10-16T03:12:00;100961.13;;;11.66;100.00
51289;BME280;37372;52.294;5.152;2022-10-16T03:14:26;100964.34;;;11.64;100.00
51289;BME280;37372;52.294;5.152;2022-10-16T03:16:51;100955.94;;;11.64;100.00
51289;BME280;37372;52.294;5.152;2022-10-16T03:19:17;100950.75;;;11.63;100.00
51289;BME280;37372;52.294;5.152;2022-10-16T03:21:43;100953.16;;;11.61;100.00
51289;BME280;37372;52.294;5.152;2022-10-16T03:24:08;100957.53;;;11.65;100.00
51289;BME280;37372;52.294;5.152;2022-10-16T03:26:34;100965.13;;;11.68;100.00
51289;BME280;37372;52.294;5.152;2022-10-16T03:28:59;100961.94;;;11.66;100.00
51289;BME280;37372;52.294;5.152;2022-10-16T03:31:25;100967.59;;;11.63;100.00
51289;BME280;37372;52.294;5.152;2022-10-16T03:33:50;100970.75;;;11.65;100.00
51289;BME280;37372;52.294;5.152;2022-10-16T03:36:15;100967.59;;;11.63;100.00
51289;BME280;37372;52.294;5.152;2022-10-16T03:38:41;100962.06;;;11.56;100.00
51289;BME280;37372;52.294;5.152;2022-10-16T03:41:06;100975.31;;;11.55;100.00
51289;BME280;37372;52.294;5.152;2022-10-16T03:43:33;100974.16;;;11.49;100.00
51289;BME280;37372;52.294;5.152;2022-10-16T03:45:58;100981.00;;;11.48;100.00
51289;BME280;37372;52.294;5.152;2022-10-16T03:48:24;100986.97;;;11.54;100.00
51289;BME280;37372;52.294;5.152;2022-10-16T03:50:49;100978.19;;;11.48;100.00
51289;BME280;37372;52.294;5.152;2022-10-16T03:53:15;100972.53;;;11.51;100.00
51289;BME280;37372;52.294;5.152;2022-10-16T03:55:41;100980.22;;;11.47;100.00
51289;BME280;37372;52.294;5.152;2022-10-16T03:58:07;100980.63;;;11.46;100.00
51289;BME280;37372;52.294;5.152;2022-10-16T04:00:32;100984.66;;;11.45;100.00
51289;BME280;37372;52.294;5.152;2022-10-16T04:02:58;100986.25;;;11.46;100.00
51289;BME280;37372;52.294;5.152;2022-10-16T04:05:23;100986.63;;;11.48;100.00
51289;BME280;37372;52.294;5.152;2022-10-16T04:07:49;100987.81;;;11.47;100.00
51289;BME280;37372;52.294;5.152;2022-10-16T04:10:14;100997.94;;;11.41;100.00
51289;BME280;37372;52.294;5.152;2022-10-16T04:12:39;100999.97;;;11.37;100.00
51289;BME280;37372;52.294;5.152;2022-10-16T04:15:05;100998.41;;;11.36;100.00
51289;BME280;37372;52.294;5.152;2022-10-16T04:17:30;101015.63;;;11.38;100.00
51289;BME280;37372;52.294;5.152;2022-10-16T04:19:56;101012.44;;;11.36;100.00
51289;BME280;37372;52.294;5.152;2022-10-16T04:22:21;101014.84;;;11.34;100.00
51289;BME280;37372;52.294;5.152;2022-10-16T04:24:46;101018.44;;;11.38;100.00
51289;BME280;37372;52.294;5.152;2022-10-16T04:27:12;101024.84;;;11.38;100.00
51289;BME280;37372;52.294;5.152;2022-10-16T04:29:37;101032.50;;;11.34;100.00
51289;BME280;37372;52.294;5.152;2022-10-16T04:32:02;101028.13;;;11.29;100.00
51289;BME280;37372;52.294;5.152;2022-10-16T04:34:28;101034.19;;;11.28;100.00
51289;BME280;37372;52.294;5.152;2022-10-16T04:36:53;101029.81;;;11.23;100.00
51289;BME280;37372;52.294;5.152;2022-10-16T04:39:19;101041.81;;;11.24;100.00
51289;BME280;37372;52.294;5.152;2022-10-16T04:41:44;101037.78;;;11.28;100.00
51289;BME280;37372;52.294;5.152;2022-10-16T04:44:09;101047.47;;;11.20;100.00
51289;BME280;37372;52.294;5.152;2022-10-16T04:46:35;101049.47;;;11.23;100.00
51289;BME280;37372;52.294;5.152;2022-10-16T04:49:00;101059.41;;;11.32;100.00
51289;BME280;37372;52.294;5.152;2022-10-16T04:51:25;101051.72;;;11.39;100.00
51289;BME280;37372;52.294;5.152;2022-10-16T04:53:53;101042.88;;;11.41;100.00
51289;BME280;37372;52.294;5.152;2022-10-16T04:56:19;101045.56;;;11.51;100.00
51289;BME280;37372;52.294;5.152;2022-10-16T04:58:45;101055.63;;;11.52;100.00
51289;BME280;37372;52.294;5.152;2022-10-16T05:01:11;101070.41;;;11.57;100.00
51289;BME280;37372;52.294;5.152;2022-10-16T05:03:36;101067.19;;;11.58;100.00
51289;BME280;37372;52.294;5.152;2022-10-16T05:06:01;101078.38;;;11.65;100.00
51289;BME280;37372;52.294;5.152;2022-10-16T05:08:29;101079.53;;;11.68;100.00
51289;BME280;37372;52.294;5.152;2022-10-16T05:10:54;101080.75;;;11.67;100.00
51289;BME280;37372;52.294;5.152;2022-10-16T05:13:19;101090.41;;;11.66;100.00
51289;BME280;37372;52.294;5.152;2022-10-16T05:15:48;101095.97;;;11.69;100.00
51289;BME280;37372;52.294;5.152;2022-10-16T05:18:14;101100.78;;;11.69;100.00
51289;BME280;37372;52.294;5.152;2022-10-16T05:20:40;101103.19;;;11.70;100.00
51289;BME280;37372;52.294;5.152;2022-10-16T05:23:06;101107.97;;;11.73;100.00
51289;BME280;37372;52.294;5.152;2022-10-16T05:25:31;101109.22;;;11.69;100.00
51289;BME280;37372;52.294;5.152;2022-10-16T05:27:56;101104.00;;;11.67;100.00
51289;BME280;37372;52.294;5.152;2022-10-16T05:30:22;101124.91;;;11.66;100.00
51289;BME280;37372;52.294;5.152;2022-10-16T05:32:49;101124.91;;;11.66;100.00
51289;BME280;37372;52.294;5.152;2022-10-16T05:35:15;101125.69;;;11.70;100.00
51289;BME280;37372;52.294;5.152;2022-10-16T05:37:41;101130.91;;;11.68;100.00
51289;BME280;37372;52.294;5.152;2022-10-16T05:40:08;101127.25;;;11.71;100.00
51289;BME280;37372;52.294;5.152;2022-10-16T05:42:33;101116.88;;;11.68;100.00
51289;BME280;37372;52.294;5.152;2022-10-16T05:44:58;101124.84;;;11.70;100.00
51289;BME280;37372;52.294;5.152;2022-10-16T05:47:24;101121.72;;;11.64;100.00
51289;BME280;37372;52.294;5.152;2022-10-16T05:49:49;101140.19;;;11.62;100.00
51289;BME280;37372;52.294;5.152;2022-10-16T05:52:15;101131.38;;;11.63;100.00
51289;BME280;37372;52.294;5.152;2022-10-16T05:54:40;101141.03;;;11.59;100.00
51289;BME280;37372;52.294;5.152;2022-10-16T05:57:05;101148.28;;;11.56;100.00
51289;BME280;37372;52.294;5.152;2022-10-16T05:59:31;101145.84;;;11.58;100.00
51289;BME280;37372;52.294;5.152;2022-10-16T06:01:57;101149.88;;;11.57;100.00
51289;BME280;37372;52.294;5.152;2022-10-16T06:04:22;101162.72;;;11.58;100.00
51289;BME280;37372;52.294;5.152;2022-10-16T06:06:47;101163.50;;;11.59;100.00
51289;BME280;37372;52.294;5.152;2022-10-16T06:09:13;101170.75;;;11.56;100.00
51289;BME280;37372;52.294;5.152;2022-10-16T06:11:38;101172.78;;;11.56;100.00
51289;BME280;37372;52.294;5.152;2022-10-16T06:14:03;101169.16;;;11.55;100.00
51289;BME280;37372;52.294;5.152;2022-10-16T06:16:33;101169.97;;;11.52;100.00
51289;BME280;37372;52.294;5.152;2022-10-16T06:18:59;101166.81;;;11.50;100.00
51289;BME280;37372;52.294;5.152;2022-10-16T06:21:26;101158.78;;;11.48;100.00
51289;BME280;37372;52.294;5.152;2022-10-16T06:23:52;101145.97;;;11.47;100.00
51289;BME280;37372;52.294;5.152;2022-10-16T06:26:20;101145.97;;;11.44;100.00
51289;BME280;37372;52.294;5.152;2022-10-16T06:28:46;101151.63;;;11.40;100.00
51289;BME280;37372;52.294;5.152;2022-10-16T06:31:12;101168.47;;;11.40;100.00
51289;BME280;37372;52.294;5.152;2022-10-16T06:33:38;101160.47;;;11.39;100.00
51289;BME280;37372;52.294;5.152;2022-10-16T06:36:15;101164.88;;;11.36;100.00
51289;BME280;37372;52.294;5.152;2022-10-16T06:38:41;101172.56;;;11.28;100.00
51289;BME280;37372;52.294;5.152;2022-10-16T06:41:09;101162.97;;;11.26;100.00
51289;BME280;37372;52.294;5.152;2022-10-16T06:43:35;101179.81;;;11.26;100.00
51289;BME280;37372;52.294;5.152;2022-10-16T06:46:01;101179.03;;;11.25;100.00
51289;BME280;37372;52.294;5.152;2022-10-16T06:48:27;101191.09;;;11.22;100.00
51289;BME280;37372;52.294;5.152;2022-10-16T06:51:00;101189.47;;;11.21;100.00
51289;BME280;37372;52.294;5.152;2022-10-16T06:53:27;101183.84;;;11.21;100.00
51289;BME280;37372;52.294;5.152;2022-10-16T06:55:53;101193.03;;;11.29;100.00
51289;BME280;37372;52.294;5.152;2022-10-16T06:58:18;101189.81;;;11.30;100.00
51289;BME280;37372;52.294;5.152;2022-10-16T07:00:44;101199.81;;;11.35;100.00
51289;BME280;37372;52.294;5.152;2022-10-16T07:03:10;101206.63;;;11.38;100.00
51289;BME280;37372;52.294;5.152;2022-10-16T07:05:39;101208.63;;;11.37;100.00
51289;BME280;37372;52.294;5.152;2022-10-16T07:08:05;101213.44;;;11.40;100.00
51289;BME280;37372;52.294;5.152;2022-10-16T07:10:31;101214.19;;;11.44;100.00
51289;BME280;37372;52.294;5.152;2022-10-16T07:12:57;101225.41;;;11.48;100.00
51289;BME280;37372;52.294;5.152;2022-10-16T07:15:22;101218.53;;;11.56;100.00
51289;BME280;37372;52.294;5.152;2022-10-16T07:17:47;101232.53;;;11.60;100.00
51289;BME280;37372;52.294;5.152;2022-10-16T07:20:13;101242.94;;;11.66;100.00
51289;BME280;37372;52.294;5.152;2022-10-16T07:22:38;101246.56;;;11.63;100.00
51289;BME280;37372;52.294;5.152;2022-10-16T07:25:04;101246.56;;;11.63;100.00
51289;BME280;37372;52.294;5.152;2022-10-16T07:27:29;101249.38;;;11.60;100.00
51289;BME280;37372;52.294;5.152;2022-10-16T07:29:55;101259.03;;;11.59;100.00
51289;BME280;37372;52.294;5.152;2022-10-16T07:32:20;101269.09;;;11.56;100.00
51289;BME280;37372;52.294;5.152;2022-10-16T07:34:46;101274.75;;;11.52;100.00
51289;BME280;37372;52.294;5.152;2022-10-16T07:37:11;101284.78;;;11.50;100.00
51289;BME280;37372;52.294;5.152;2022-10-16T07:39:36;101284.78;;;11.50;100.00
51289;BME280;37372;52.294;5.152;2022-10-16T07:42:02;101288.81;;;11.49;100.00
51289;BME280;37372;52.294;5.152;2022-10-16T07:44:27;101292.00;;;11.51;100.00
51289;BME280;37372;52.294;5.152;2022-10-16T07:46:52;101302.03;;;11.52;100.00
51289;BME280;37372;52.294;5.152;2022-10-16T07:49:18;101301.22;;;11.55;100.00
51289;BME280;37372;52.294;5.152;2022-10-16T07:51:43;101315.28;;;11.55;100.00
51289;BME280;37372;52.294;5.152;2022-10-16T07:54:09;101312.03;;;11.57;100.00
51289;BME280;37372;52.294;5.152;2022-10-16T07:56:35;101318.00;;;11.62;100.00
51289;BME280;37372;52.294;5.152;2022-10-16T07:59:00;101320.03;;;11.65;100.00
51289;BME280;37372;52.294;5.152;2022-10-16T08:01:26;101322.41;;;11.67;100.00
51289;BME280;37372;52.294;5.152;2022-10-16T08:03:52;101321.16;;;11.71;100.00
51289;BME280;37372;52.294;5.152;2022-10-16T08:06:19;101326.31;;;11.80;100.00
51289;BME280;37372;52.294;5.152;2022-10-16T08:08:45;101335.19;;;11.79;100.00
51289;BME280;37372;52.294;5.152;2022-10-16T08:11:11;101335.94;;;11.83;100.00
51289;BME280;37372;52.294;5.152;2022-10-16T08:13:36;101343.16;;;11.87;100.00
51289;BME280;37372;52.294;5.152;2022-10-16T08:16:02;101356.00;;;11.92;100.00
51289;BME280;37372;52.294;5.152;2022-10-16T08:18:33;101344.75;;;11.92;100.00
51289;BME280;37372;52.294;5.152;2022-10-16T08:20:59;101355.97;;;11.95;100.00
51289;BME280;37372;52.294;5.152;2022-10-16T08:23:26;101351.91;;;12.00;100.00
51289;BME280;37372;52.294;5.152;2022-10-16T08:25:55;101349.88;;;12.04;100.00
51289;BME280;37372;52.294;5.152;2022-10-16T08:28:21;101353.44;;;12.12;100.00
51289;BME280;37372;52.294;5.152;2022-10-16T08:30:47;101351.78;;;12.18;100.00
51289;BME280;37372;52.294;5.152;2022-10-16T08:33:12;101354.97;;;12.24;100.00
51289;BME280;37372;52.294;5.152;2022-10-16T08:35:38;101360.16;;;12.25;100.00
51289;BME280;37372;52.294;5.152;2022-10-16T08:38:04;101354.88;;;12.31;100.00
51289;BME280;37372;52.294;5.152;2022-10-16T08:40:31;101368.94;;;12.34;100.00
51289;BME280;37372;52.294;5.152;2022-10-16T08:45:46;101376.47;;;12.45;100.00
51289;BME280;37372;52.294;5.152;2022-10-16T08:48:29;101376.88;;;12.47;100.00
51289;BME280;37372;52.294;5.152;2022-10-16T08:50:55;101385.28;;;12.50;100.00
51289;BME280;37372;52.294;5.152;2022-10-16T08:53:27;101396.47;;;12.54;100.00
51289;BME280;37372;52.294;5.152;2022-10-16T08:55:54;101403.63;;;12.66;100.00
51289;BME280;37372;52.294;5.152;2022-10-16T08:58:22;101402.78;;;12.69;100.00
51289;BME280;37372;52.294;5.152;2022-10-16T09:00:51;101410.41;;;12.72;100.00
51289;BME280;37372;52.294;5.152;2022-10-16T09:08:51;101421.06;;;12.91;100.00
51289;BME280;37372;52.294;5.152;2022-10-16T09:19:47;101433.84;;;13.03;100.00
51289;BME280;37372;52.294;5.152;2022-10-16T09:22:17;101448.34;;;13.01;100.00
51289;BME280;37372;52.294;5.152;2022-10-16T09:24:43;101451.09;;;13.09;100.00
51289;BME280;37372;52.294;5.152;2022-10-16T09:27:11;101451.09;;;13.09;100.00
51289;BME280;37372;52.294;5.152;2022-10-16T09:29:37;101456.25;;;13.14;100.00
51289;BME280;37372;52.294;5.152;2022-10-16T09:32:19;101462.34;;;13.09;100.00
51289;BME280;37372;52.294;5.152;2022-10-16T09:34:48;101463.47;;;13.15;100.00
51289;BME280;37372;52.294;5.152;2022-10-16T09:37:18;101475.19;;;13.10;100.00
51289;BME280;37372;52.294;5.152;2022-10-16T09:39:46;101470.78;;;13.09;100.00
51289;BME280;37372;52.294;5.152;2022-10-16T09:42:16;101464.66;;;13.17;100.00
51289;BME280;37372;52.294;5.152;2022-10-16T09:44:42;101462.66;;;13.18;100.00
51289;BME280;37372;52.294;5.152;2022-10-16T09:47:27;101470.63;;;13.27;100.00
51289;BME280;37372;52.294;5.152;2022-10-16T09:52:25;101475.31;;;13.40;100.00
51289;BME280;37372;52.294;5.152;2022-10-16T09:54:53;101472.00;;;13.49;100.00
51289;BME280;37372;52.294;5.152;2022-10-16T09:57:19;101476.75;;;13.56;100.00
51289;BME280;37372;52.294;5.152;2022-10-16T09:59:50;101473.47;;;13.61;100.00
51289;BME280;37372;52.294;5.152;2022-10-16T10:02:18;101474.09;;;13.76;100.00
51289;BME280;37372;52.294;5.152;2022-10-16T10:04:49;101472.50;;;13.75;100.00
51289;BME280;37372;52.294;5.152;2022-10-16T10:07:24;101473.22;;;13.82;100.00
51289;BME280;37372;52.294;5.152;2022-10-16T10:09:50;101479.56;;;13.90;100.00
51289;BME280;37372;52.294;5.152;2022-10-16T10:12:21;101483.53;;;13.93;100.00
51289;BME280;37372;52.294;5.152;2022-10-16T10:14:50;101491.63;;;13.90;100.00
51289;BME280;37372;52.294;5.152;2022-10-16T10:19:55;101492.41;;;13.91;100.00
51289;BME280;37372;52.294;5.152;2022-10-16T10:22:44;101493.75;;;13.83;100.00
51289;BME280;37372;52.294;5.152;2022-10-16T10:30:24;101509.53;;;13.77;100.00
51289;BME280;37372;52.294;5.152;2022-10-16T10:38:50;101530.56;;;14.03;100.00
51289;BME280;37372;52.294;5.152;2022-10-16T10:46:57;101534.03;;;14.14;100.00
51289;BME280;37372;52.294;5.152;2022-10-16T10:52:15;101532.97;;;14.04;100.00
51289;BME280;37372;52.294;5.152;2022-10-16T10:55:02;101545.50;;;14.00;100.00
51289;BME280;37372;52.294;5.152;2022-10-16T11:06:34;101541.06;;;13.99;100.00
51289;BME280;37372;52.294;5.152;2022-10-16T11:09:09;101552.75;;;14.01;100.00
51289;BME280;37372;52.294;5.152;2022-10-16T11:11:45;101553.88;;;14.07;100.00
51289;BME280;37372;52.294;5.152;2022-10-16T11:14:20;101557.50;;;14.07;100.00
51289;BME280;37372;52.294;5.152;2022-10-16T11:17:13;101573.59;;;14.10;98.89
51289;BME280;37372;52.294;5.152;2022-10-16T11:19:54;101567.56;;;14.08;99.05
51289;BME280;37372;52.294;5.152;2022-10-16T11:27:39;101571.00;;;14.23;100.00
51289;BME280;37372;52.294;5.152;2022-10-16T11:30:30;101589.41;;;14.35;98.53
51289;BME280;37372;52.294;5.152;2022-10-16T11:33:02;101575.69;;;14.33;95.38
51289;BME280;37372;52.294;5.152;2022-10-16T11:35:57;101581.50;;;14.23;95.20
51289;BME280;37372;52.294;5.152;2022-10-16T11:38:34;101581.09;;;14.21;95.71
51289;BME280;37372;52.294;5.152;2022-10-16T11:41:15;101582.19;;;14.30;96.48
51289;BME280;37372;52.294;5.152;2022-10-16T11:44:13;101572.69;;;14.48;97.69
51289;BME280;37372;52.294;5.152;2022-10-16T11:46:36;101581.50;;;14.81;94.98
51289;BME280;37372;52.294;5.152;2022-10-16T11:49:10;101585.19;;;14.77;92.90
51289;BME280;37372;52.294;5.152;2022-10-16T11:56:55;101587.28;;;14.73;87.88
51289;BME280;37372;52.294;5.152;2022-10-16T11:59:31;101588.75;;;14.82;87.96
51289;BME280;37372;52.294;5.152;2022-10-16T12:08:22;101589.84;;;14.88;87.00
51289;BME280;37372;52.294;5.152;2022-10-16T12:10:48;101601.22;;;14.84;87.01
51289;BME280;37372;52.294;5.152;2022-10-16T12:13:36;101600.34;;;14.91;86.86
51289;BME280;37372;52.294;5.152;2022-10-16T12:18:36;101601.44;;;14.97;86.73
51289;BME280;37372;52.294;5.152;2022-10-16T12:21:02;101609.03;;;15.00;85.72
51289;BME280;37372;52.294;5.152;2022-10-16T12:23:33;101612.63;;;15.04;82.64
51289;BME280;37372;52.294;5.152;2022-10-16T12:26:01;101609.81;;;15.04;82.79
51289;BME280;37372;52.294;5.152;2022-10-16T12:28:29;101607.00;;;15.01;83.73
51289;BME280;37372;52.294;5.152;2022-10-16T12:33:30;101615.44;;;15.04;82.75
51289;BME280;37372;52.294;5.152;2022-10-16T12:35:57;101623.47;;;15.06;83.38
51289;BME280;37372;52.294;5.152;2022-10-16T12:38:36;101619.25;;;14.94;83.27
51289;BME280;37372;52.294;5.152;2022-10-16T12:41:05;101614.94;;;14.86;84.29
51289;BME280;37372;52.294;5.152;2022-10-16T12:43:41;101624.59;;;14.88;83.33
51289;BME280;37372;52.294;5.152;2022-10-16T12:48:33;101617.84;;;14.79;84.93
51289;BME280;37372;52.294;5.152;2022-10-16T12:51:10;101634.72;;;14.86;80.52
51289;BME280;37372;52.294;5.152;2022-10-16T12:53:35;101626.69;;;14.81;79.43
51289;BME280;37372;52.294;5.152;2022-10-16T12:56:13;101633.56;;;14.80;80.37
51289;BME280;37372;52.294;5.152;2022-10-16T12:59:09;101640.34;;;14.86;77.46
51289;BME280;37372;52.294;5.152;2022-10-16T13:04:19;101630.19;;;14.61;78.11
51289;BME280;37372;52.294;5.152;2022-10-16T13:07:18;101634.34;;;14.49;80.05
51289;BME280;37372;52.294;5.152;2022-10-16T13:10:01;101637.19;;;14.53;79.45
51289;BME280;37372;52.294;5.152;2022-10-16T13:12:54;101631.22;;;14.44;81.05
51289;BME280;37372;52.294;5.152;2022-10-16T13:15:26;101632.06;;;14.41;82.54
51289;BME280;37372;52.294;5.152;2022-10-16T13:18:16;101628.75;;;14.46;84.03
51289;BME280;37372;52.294;5.152;2022-10-16T13:21:07;101634.72;;;14.55;84.01
51289;BME280;37372;52.294;5.152;2022-10-16T13:23:50;101640.59;;;14.68;83.15
51289;BME280;37372;52.294;5.152;2022-10-16T13:28:47;101663.78;;;14.83;77.74
51289;BME280;37372;52.294;5.152;2022-10-16T13:31:17;101662.88;;;14.89;77.33
51289;BME280;37372;52.294;5.152;2022-10-16T13:33:47;101665.66;;;14.93;78.40
51289;BME280;37372;52.294;5.152;2022-10-16T13:36:23;101665.34;;;15.14;75.81
51289;BME280;37372;52.294;5.152;2022-10-16T13:39:13;101673.81;;;15.14;77.09
51289;BME280;37372;52.294;5.152;2022-10-16T13:41:39;101656.88;;;15.14;78.09
51289;BME280;37372;52.294;5.152;2022-10-16T13:44:05;101675.84;;;15.14;79.13
51289;BME280;37372;52.294;5.152;2022-10-16T13:46:37;101674.94;;;15.20;79.13
51289;BME280;37372;52.294;5.152;2022-10-16T13:49:16;101681.06;;;15.15;80.86
51289;BME280;37372;52.294;5.152;2022-10-16T13:51:53;101681.75;;;15.23;81.62
51289;BME280;37372;52.294;5.152;2022-10-16T13:54:19;101679.25;;;15.29;81.97
51289;BME280;37372;52.294;5.152;2022-10-16T13:56:44;101665.38;;;15.38;81.40
51289;BME280;37372;52.294;5.152;2022-10-16T13:59:23;101675.09;;;15.37;80.88
51289;BME280;37372;52.294;5.152;2022-10-16T14:01:50;101671.13;;;15.31;81.32
51289;BME280;37372;52.294;5.152;2022-10-16T14:04:17;101667.28;;;15.45;80.51
51289;BME280;37372;52.294;5.152;2022-10-16T14:06:46;101672.38;;;15.53;80.90
51289;BME280;37372;52.294;5.152;2022-10-16T14:09:24;101674.84;;;15.51;80.62
51289;BME280;37372;52.294;5.152;2022-10-16T14:11:53;101678.91;;;15.50;80.09
51289;BME280;37372;52.294;5.152;2022-10-16T14:14:21;101673.56;;;15.56;79.70
51289;BME280;37372;52.294;5.152;2022-10-16T14:16:47;101675.63;;;15.52;80.18
51289;BME280;37372;52.294;5.152;2022-10-16T14:19:26;101679.28;;;15.52;80.24